Time;durP1;ratioP1;P1;durP2;ratioP2;P2;SDS_P1;SDS_P2;PMS_P1;PMS_P2;Temp;Humidity;BMP_temperature;BMP_pressure;BME280_temperature;BME280_humidity;BME280_pressure;Samples;Min_cycle;Max_cycle;Signal;HPM_P1;HPM_P2
2021/10/02 00:01:41;;;;;;;4.88;2.20;;;11.10;99.90;;;;;;5011812;28;20024;-67
2021/10/02 00:44:51;;;;;;;5.70;2.17;;;11.00;99.90;;;;;;5011299;28;20143;-67
2021/10/02 00:47:19;;;;;;;4.95;1.70;;;11.00;99.90;;;;;;5010836;28;20121;-67
2021/10/02 00:49:46;;;;;;;6.13;2.00;;;11.00;99.90;;;;;;5010833;28;20109;-67
2021/10/02 00:52:16;;;;;;;4.20;1.92;;;11.00;99.90;;;;;;5011118;28;20056;-66
2021/10/02 00:54:43;;;;;;;3.13;1.70;;;11.10;99.90;;;;;;5009913;28;20038;-66
2021/10/02 00:57:10;;;;;;;3.88;1.48;;;11.10;99.90;;;;;;5010259;28;20435;-67
2021/10/02 00:59:37;;;;;;;5.18;2.05;;;11.10;99.90;;;;;;5010823;28;20022;-67
2021/10/02 01:02:27;;;;;;;4.50;1.85;;;11.00;99.90;;;;;;5010746;28;20030;-67
2021/10/02 01:05:30;;;;;;;7.32;2.08;;;11.00;99.90;;;;;;5010806;28;20038;-66
2021/10/02 01:08:26;;;;;;;3.58;1.63;;;11.10;99.90;;;;;;5011147;28;20117;-67
2021/10/02 01:11:24;;;;;;;3.78;1.73;;;11.10;99.90;;;;;;5010757;28;20030;-67
2021/10/02 01:14:39;;;;;;;6.13;1.80;;;11.10;99.90;;;;;;5043393;28;20508;-67
2021/10/02 01:17:24;;;;;;;4.00;1.60;;;11.10;99.90;;;;;;5005965;28;20033;-67
2021/10/02 01:20:05;;;;;;;4.15;1.58;;;11.10;99.90;;;;;;5010591;28;20083;-68
2021/10/02 01:22:52;;;;;;;9.40;1.83;;;11.10;99.90;;;;;;5010528;28;20036;-67
2021/10/02 01:25:46;;;;;;;5.57;1.98;;;11.10;99.90;;;;;;5010258;28;20017;-67
2021/10/02 01:28:18;;;;;;;3.63;1.95;;;11.10;99.90;;;;;;5010323;28;20413;-67
2021/10/02 01:33:51;;;;;;;3.00;1.65;;;11.10;99.90;;;;;;5010159;28;20065;-67
2021/10/02 01:36:30;;;;;;;8.73;2.25;;;11.10;99.90;;;;;;5010047;28;20033;-67
2021/10/02 01:47:23;;;;;;;4.78;2.03;;;11.10;99.90;;;;;;5010059;28;20117;-67
2021/10/02 01:49:55;;;;;;;2.80;1.50;;;11.10;99.90;;;;;;5009919;28;20041;-67
2021/10/02 01:52:25;;;;;;;4.20;1.80;;;11.10;99.90;;;;;;5010219;28;20384;-68
2021/10/02 01:54:55;;;;;;;4.28;1.83;;;11.10;99.90;;;;;;5009839;28;20038;-68
2021/10/02 01:57:27;;;;;;;3.90;1.70;;;11.10;99.90;;;;;;5009855;28;20042;-68
2021/10/02 01:59:57;;;;;;;3.60;1.70;;;11.10;99.90;;;;;;5009768;28;20334;-67
2021/10/02 02:02:27;;;;;;;4.75;1.80;;;11.10;99.90;;;;;;5009726;28;20104;-67
2021/10/02 02:04:55;;;;;;;5.13;1.90;;;11.10;99.90;;;;;;5009831;28;20022;-67
2021/10/02 02:07:23;;;;;;;2.85;1.42;;;11.10;99.90;;;;;;5009527;28;20055;-67
2021/10/02 02:09:52;;;;;;;4.30;1.40;;;11.10;99.90;;;;;;5009674;28;20473;-67
2021/10/02 02:12:19;;;;;;;3.38;1.45;;;11.10;99.90;;;;;;5009871;28;20038;-67
2021/10/02 02:14:47;;;;;;;4.25;1.60;;;11.10;99.90;;;;;;5009840;28;20424;-67
2021/10/02 02:17:16;;;;;;;2.65;1.25;;;11.10;99.90;;;;;;5009793;28;20018;-67
2021/10/02 02:19:44;;;;;;;2.38;1.15;;;11.10;99.90;;;;;;5009476;28;20044;-67
2021/10/02 02:22:10;;;;;;;7.10;1.40;;;11.10;99.90;;;;;;5009513;28;20079;-67
2021/10/02 02:54:09;;;;;;;3.20;1.40;;;11.20;99.90;;;;;;5008918;28;20103;-67
2021/10/02 02:56:43;;;;;;;2.85;1.42;;;11.20;99.90;;;;;;5009021;28;20473;-67
2021/10/02 02:59:20;;;;;;;3.72;1.75;;;11.20;99.90;;;;;;5008902;28;20054;-67
2021/10/02 03:01:49;;;;;;;8.15;1.58;;;11.10;99.90;;;;;;5009274;28;20101;-66
2021/10/02 03:04:18;;;;;;;3.23;1.60;;;11.10;99.90;;;;;;5008928;28;20022;-67
2021/10/02 03:06:50;;;;;;;3.53;1.92;;;11.10;99.90;;;;;;5008894;28;20500;-66
2021/10/02 03:09:17;;;;;;;3.50;1.58;;;11.10;99.90;;;;;;5008919;28;20070;-66
2021/10/02 03:11:49;;;;;;;5.50;1.80;;;11.10;99.90;;;;;;5009143;28;20369;-66
2021/10/02 03:14:19;;;;;;;7.55;2.45;;;11.10;99.90;;;;;;5008818;28;20059;-66
2021/10/02 03:16:46;;;;;;;5.70;1.80;;;11.10;99.90;;;;;;5008790;28;20029;-66
2021/10/02 03:19:13;;;;;;;3.70;1.83;;;11.10;99.90;;;;;;5010625;28;20265;-66
2021/10/02 03:21:40;;;;;;;4.82;1.77;;;11.10;99.90;;;;;;5012126;28;20026;-67
2021/10/02 03:24:07;;;;;;;6.20;2.00;;;11.10;99.90;;;;;;5012519;28;20041;-67
2021/10/02 03:26:36;;;;;;;4.63;2.17;;;11.10;99.90;;;;;;5012328;28;20025;-67
2021/10/02 03:29:02;;;;;;;6.85;2.08;;;11.10;99.90;;;;;;5012199;28;20501;-67
2021/10/02 03:31:29;;;;;;;3.70;2.05;;;11.10;99.90;;;;;;5011969;28;20350;-67
2021/10/02 03:33:55;;;;;;;5.40;1.98;;;11.10;99.90;;;;;;5012314;28;20038;-66
2021/10/02 03:36:20;;;;;;;6.05;2.50;;;11.10;99.90;;;;;;5012229;28;20044;-66
2021/10/02 03:38:47;;;;;;;8.75;2.03;;;11.00;99.90;;;;;;5012173;28;20026;-67
2021/10/02 03:41:12;;;;;;;3.58;2.28;;;11.00;99.90;;;;;;5011913;28;20022;-67
2021/10/02 03:43:38;;;;;;;8.07;2.63;;;11.00;99.90;;;;;;5012009;28;20030;-67
2021/10/02 03:46:05;;;;;;;4.00;2.20;;;11.00;99.90;;;;;;5011814;28;20512;-67
2021/10/02 03:48:31;;;;;;;5.60;2.42;;;11.00;99.90;;;;;;5011720;28;20037;-67
2021/10/02 03:51:00;;;;;;;9.20;2.38;;;11.00;99.90;;;;;;5011751;28;20607;-67
2021/10/02 03:53:28;;;;;;;4.95;2.33;;;11.00;99.90;;;;;;5011848;28;20038;-67
2021/10/02 03:55:55;;;;;;;4.70;2.20;;;11.00;99.90;;;;;;5012063;28;20405;-67
2021/10/02 03:58:21;;;;;;;4.32;2.33;;;11.00;99.90;;;;;;5011837;28;20053;-70
2021/10/02 04:00:47;;;;;;;4.63;2.40;;;11.00;99.90;;;;;;5011618;28;20496;-68
2021/10/02 04:03:14;;;;;;;4.15;2.08;;;11.00;99.90;;;;;;5012004;28;20046;-68
2021/10/02 04:05:40;;;;;;;9.00;2.40;;;11.00;99.90;;;;;;5011573;28;20507;-68
2021/10/02 04:08:05;;;;;;;5.80;2.42;;;11.00;99.90;;;;;;5011919;28;20033;-68
2021/10/02 04:10:31;;;;;;;6.55;2.22;;;11.00;99.90;;;;;;5011404;28;20424;-68
2021/10/02 04:12:57;;;;;;;4.38;2.45;;;11.00;99.90;;;;;;5011740;28;20423;-68
2021/10/02 04:15:24;;;;;;;5.15;2.05;;;11.00;99.90;;;;;;5011678;28;20052;-69
2021/10/02 04:17:50;;;;;;;3.85;1.80;;;11.00;99.90;;;;;;5011561;28;20025;-70
2021/10/02 04:20:16;;;;;;;5.00;2.40;;;11.00;99.90;;;;;;5011299;28;20572;-69
2021/10/02 04:22:42;;;;;;;6.95;2.00;;;11.00;99.90;;;;;;5011641;28;20026;-68
2021/10/02 04:25:08;;;;;;;4.75;2.13;;;11.00;99.90;;;;;;5011338;28;20053;-68
2021/10/02 04:27:34;;;;;;;6.55;1.83;;;11.00;99.90;;;;;;5011172;28;20029;-68
2021/10/02 04:29:59;;;;;;;8.23;2.35;;;11.00;99.90;;;;;;5011247;28;20118;-69
2021/10/02 04:32:25;;;;;;;4.88;1.73;;;11.00;99.90;;;;;;5011250;28;20500;-67
2021/10/02 04:34:51;;;;;;;5.45;1.83;;;11.00;99.90;;;;;;5022461;22;20058;-70
2021/10/02 04:37:17;;;;;;;3.25;1.83;;;11.00;99.90;;;;;;4991497;28;20027;-68
2021/10/02 04:39:42;;;;;;;3.50;1.73;;;11.20;99.90;;;;;;4991326;28;20027;-69
2021/10/02 04:42:08;;;;;;;3.60;1.98;;;11.20;99.90;;;;;;4991524;28;20038;-70
2021/10/02 04:44:34;;;;;;;4.15;2.03;;;11.20;99.90;;;;;;4991529;28;20039;-68
2021/10/02 04:47:00;;;;;;;4.53;2.03;;;11.20;99.90;;;;;;4991672;28;20172;-69
2021/10/02 04:49:26;;;;;;;4.57;1.98;;;11.10;99.90;;;;;;4991455;28;20030;-68
2021/10/02 04:51:51;;;;;;;4.97;2.20;;;11.10;99.90;;;;;;4991111;28;20113;-68
2021/10/02 04:54:18;;;;;;;3.88;2.10;;;11.10;99.90;;;;;;4991250;28;20125;-69
2021/10/02 04:56:45;;;;;;;5.55;2.38;;;11.10;99.90;;;;;;4991166;28;20044;-68
2021/10/02 04:59:11;;;;;;;4.88;2.13;;;11.10;99.90;;;;;;4991537;28;20027;-67
2021/10/02 05:01:37;;;;;;;4.13;1.85;;;11.10;99.90;;;;;;4991082;28;20550;-67
2021/10/02 05:04:03;;;;;;;4.55;2.22;;;11.10;99.90;;;;;;4991406;28;20109;-69
2021/10/02 05:06:29;;;;;;;4.82;1.60;;;11.10;99.90;;;;;;4991062;28;20552;-67
2021/10/02 05:08:54;;;;;;;5.57;2.17;;;11.10;99.90;;;;;;4991235;28;20038;-67
2021/10/02 05:11:21;;;;;;;3.13;1.70;;;11.00;99.90;;;;;;4991054;28;20035;-67
2021/10/02 05:13:47;;;;;;;5.93;1.75;;;11.00;99.90;;;;;;4990866;28;20482;-67
2021/10/02 05:16:12;;;;;;;5.25;2.05;;;11.00;99.90;;;;;;4990965;28;20040;-67
2021/10/02 05:18:38;;;;;;;8.80;1.95;;;11.00;99.90;;;;;;4990875;28;20030;-67
2021/10/02 05:21:04;;;;;;;6.47;2.17;;;11.00;99.90;;;;;;4990904;28;20030;-67
2021/10/02 05:23:30;;;;;;;5.20;2.10;;;11.00;99.90;;;;;;4990998;28;20026;-68
2021/10/02 05:25:56;;;;;;;4.40;1.60;;;11.00;99.90;;;;;;4991114;28;20027;-69
2021/10/02 05:28:23;;;;;;;2.25;1.60;;;11.00;99.90;;;;;;4990994;28;20022;-68
2021/10/02 05:30:49;;;;;;;3.30;1.73;;;11.00;99.90;;;;;;4990927;28;20110;-68
2021/10/02 05:33:15;;;;;;;4.63;2.08;;;11.00;99.90;;;;;;4990979;28;20034;-69
2021/10/02 05:35:42;;;;;;;12.35;1.90;;;11.00;99.90;;;;;;4990339;28;20053;-69
2021/10/02 05:38:07;;;;;;;4.47;1.63;;;11.00;99.90;;;;;;4990711;28;20381;-69
2021/10/02 05:40:34;;;;;;;6.13;1.40;;;11.00;99.90;;;;;;4990383;28;20026;-69
2021/10/02 05:43:02;;;;;;;3.30;1.50;;;11.00;99.90;;;;;;4990474;28;20022;-68
2021/10/02 05:45:29;;;;;;;2.92;1.77;;;11.00;99.90;;;;;;4990453;28;20034;-68
2021/10/02 05:47:54;;;;;;;3.60;2.08;;;11.00;99.90;;;;;;4990360;28;20042;-68
2021/10/02 05:50:20;;;;;;;2.38;1.60;;;11.00;99.90;;;;;;4990351;28;20031;-68
2021/10/02 05:52:46;;;;;;;3.83;1.95;;;11.00;99.90;;;;;;4990315;28;20037;-68
2021/10/02 05:55:12;;;;;;;2.88;1.77;;;11.00;99.90;;;;;;4990259;28;20039;-68
2021/10/02 05:57:38;;;;;;;2.88;1.90;;;11.00;99.90;;;;;;4990220;28;20019;-69
2021/10/02 06:00:08;;;;;;;4.03;1.85;;;11.00;99.90;;;;;;4990550;28;20026;-69
2021/10/02 06:02:34;;;;;;;5.72;2.15;;;11.00;99.90;;;;;;4990420;28;20022;-67
2021/10/02 06:05:00;;;;;;;4.45;2.33;;;11.00;99.90;;;;;;4990190;28;20030;-67
2021/10/02 06:07:26;;;;;;;4.32;2.25;;;11.00;99.90;;;;;;4989055;28;20103;-67
2021/10/02 06:09:51;;;;;;;7.70;2.85;;;11.10;99.90;;;;;;4990010;28;20029;-67
2021/10/02 06:12:18;;;;;;;7.18;2.58;;;11.10;99.90;;;;;;4990162;28;20478;-67
2021/10/02 06:14:44;;;;;;;6.05;2.50;;;11.00;99.90;;;;;;4989959;28;20129;-68
2021/10/02 06:17:10;;;;;;;4.28;2.47;;;11.00;99.90;;;;;;4990242;28;20082;-66
2021/10/02 06:19:36;;;;;;;8.43;2.80;;;11.10;99.90;;;;;;4990118;28;20591;-66
2021/10/02 06:22:02;;;;;;;7.93;2.50;;;11.10;99.90;;;;;;4990181;28;20423;-66
2021/10/02 06:24:27;;;;;;;7.15;2.95;;;11.40;99.90;;;;;;4989953;28;20026;-66
2021/10/02 06:26:53;;;;;;;9.07;3.35;;;11.40;99.90;;;;;;4989811;28;20023;-66
2021/10/02 06:29:19;;;;;;;6.32;3.20;;;11.40;99.90;;;;;;4990174;28;20038;-66
2021/10/02 06:31:45;;;;;;;13.05;4.45;;;11.30;99.90;;;;;;4989773;28;20160;-66
2021/10/02 06:34:12;;;;;;;10.25;3.80;;;11.40;99.90;;;;;;4990085;28;20030;-66
2021/10/02 06:36:37;;;;;;;17.30;4.82;;;11.40;99.90;;;;;;4989509;28;20059;-66
2021/10/02 06:39:03;;;;;;;9.82;3.63;;;11.30;99.90;;;;;;4989864;28;20022;-66
2021/10/02 06:41:29;;;;;;;9.20;4.18;;;11.30;99.90;;;;;;4990017;28;20026;-66
2021/10/02 06:43:55;;;;;;;7.85;3.83;;;11.30;99.90;;;;;;4989628;28;20062;-66
2021/10/02 06:46:21;;;;;;;11.07;3.85;;;11.30;99.90;;;;;;4989727;28;20027;-66
2021/10/02 06:48:46;;;;;;;12.30;4.20;;;11.40;99.90;;;;;;4989595;28;20125;-66
2021/10/02 06:51:12;;;;;;;12.35;3.95;;;11.40;99.90;;;;;;4989960;28;20019;-68
2021/10/02 06:53:38;;;;;;;11.43;3.92;;;11.80;99.90;;;;;;4992031;28;20118;-68
2021/10/02 06:56:07;;;;;;;16.02;4.03;;;11.90;99.90;;;;;;4993144;28;20031;-67
2021/10/02 06:58:32;;;;;;;9.88;4.00;;;11.70;99.90;;;;;;4993192;28;20029;-70
2021/10/02 07:00:58;;;;;;;13.90;4.45;;;11.60;99.90;;;;;;4992856;28;20039;-69
2021/10/02 07:03:24;;;;;;;13.80;4.13;;;11.50;99.90;;;;;;4993327;28;20033;-69
2021/10/02 07:05:50;;;;;;;21.05;4.10;;;11.50;99.90;;;;;;4992874;28;20026;-69
2021/10/02 07:08:16;;;;;;;13.18;4.30;;;11.40;99.90;;;;;;4993274;28;20483;-72
2021/10/02 07:10:42;;;;;;;14.13;4.85;;;11.40;99.90;;;;;;4992797;28;20106;-69
2021/10/02 07:13:08;;;;;;;15.52;5.05;;;11.40;99.90;;;;;;4993102;28;20068;-69
2021/10/02 07:15:34;;;;;;;11.32;3.92;;;11.40;99.90;;;;;;4992806;28;20065;-71
2021/10/02 07:17:59;;;;;;;16.42;4.75;;;11.40;99.90;;;;;;4992855;28;20050;-71
2021/10/02 07:20:26;;;;;;;16.58;4.07;;;11.40;99.90;;;;;;4992931;28;20435;-71
2021/10/02 07:22:52;;;;;;;13.70;3.53;;;11.40;99.90;;;;;;4992898;28;20382;-69
2021/10/02 07:25:18;;;;;;;7.75;3.47;;;11.50;99.90;;;;;;4992899;28;20022;-69
2021/10/02 07:27:45;;;;;;;11.90;3.63;;;11.50;99.90;;;;;;4992811;28;20131;-69
2021/10/02 07:30:12;;;;;;;12.50;3.90;;;11.50;99.90;;;;;;4992717;28;20153;-69
2021/10/02 07:32:39;;;;;;;12.27;3.63;;;11.50;99.90;;;;;;4992612;28;20095;-69
2021/10/02 07:35:07;;;;;;;9.43;3.60;;;11.50;99.90;;;;;;4992191;28;20499;-69
2021/10/02 07:37:32;;;;;;;9.93;3.80;;;11.60;99.90;;;;;;4992341;28;20044;-69
2021/10/02 07:39:58;;;;;;;10.05;3.33;;;11.60;99.90;;;;;;4992263;28;20038;-69
2021/10/02 07:42:25;;;;;;;9.95;3.22;;;11.60;99.90;;;;;;4992243;28;20400;-69
2021/10/02 07:45:01;;;;;;;8.38;3.55;;;11.60;99.90;;;;;;4992446;28;20032;-69
2021/10/02 07:47:28;;;;;;;11.82;3.75;;;11.70;99.90;;;;;;4992202;28;20117;-69
2021/10/02 07:49:55;;;;;;;8.68;3.30;;;11.70;99.90;;;;;;4992072;28;20022;-69
2021/10/02 07:52:21;;;;;;;10.35;3.83;;;11.80;99.90;;;;;;4990836;28;20033;-69
2021/10/02 07:54:50;;;;;;;6.93;3.33;;;11.80;99.90;;;;;;4991894;28;20117;-69
2021/10/02 07:57:18;;;;;;;12.20;3.50;;;11.80;99.90;;;;;;4992407;28;20031;-69
2021/10/02 07:59:45;;;;;;;9.82;3.25;;;11.80;99.90;;;;;;4991980;28;20029;-69
2021/10/02 08:02:16;;;;;;;9.07;2.47;;;11.90;99.90;;;;;;4992401;28;20041;-69
2021/10/02 08:04:45;;;;;;;8.13;3.03;;;11.90;99.90;;;;;;4991520;28;20493;-69
2021/10/02 08:07:12;;;;;;;9.80;3.35;;;11.90;99.90;;;;;;4992152;28;20113;-69
2021/10/02 08:09:39;;;;;;;14.48;3.25;;;11.90;99.90;;;;;;4992381;28;20035;-69
2021/10/02 08:12:05;;;;;;;5.90;3.00;;;11.90;99.90;;;;;;4991845;28;20094;-69
2021/10/02 08:14:31;;;;;;;9.23;3.50;;;11.90;99.90;;;;;;4992337;28;20053;-69
2021/10/02 08:16:58;;;;;;;9.50;2.95;;;11.90;99.90;;;;;;4992002;28;20023;-69
2021/10/02 08:19:24;;;;;;;13.38;3.47;;;12.00;99.90;;;;;;4992092;28;20037;-69
2021/10/02 08:21:51;;;;;;;10.15;3.22;;;12.00;99.90;;;;;;4991766;28;20019;-69
2021/10/02 08:24:19;;;;;;;11.45;3.17;;;12.00;99.90;;;;;;4991724;28;20493;-69
2021/10/02 08:26:46;;;;;;;9.15;2.85;;;12.00;99.90;;;;;;4991621;28;20038;-68
2021/10/02 08:29:12;;;;;;;12.07;3.40;;;12.00;99.90;;;;;;4991692;28;20105;-68
2021/10/02 08:31:38;;;;;;;11.77;3.25;;;12.00;99.90;;;;;;4991957;28;20113;-68
2021/10/02 08:34:04;;;;;;;8.73;3.22;;;12.00;99.90;;;;;;4991583;28;20038;-68
2021/10/02 08:36:30;;;;;;;10.00;3.25;;;12.00;99.90;;;;;;4991450;28;20112;-68
2021/10/02 08:38:55;;;;;;;6.65;2.88;;;12.00;99.90;;;;;;4991744;28;20109;-69
2021/10/02 08:41:24;;;;;;;10.52;3.30;;;12.00;99.90;;;;;;4991442;28;20026;-68
2021/10/02 08:43:50;;;;;;;8.07;3.13;;;12.00;99.90;;;;;;4990061;28;20035;-69
2021/10/02 08:46:17;;;;;;;8.45;3.60;;;12.10;99.90;;;;;;4990271;28;20054;-69
2021/10/02 08:49:01;;;;;;;8.95;3.22;;;12.00;99.90;;;;;;4991624;28;20076;-69
2021/10/02 08:51:27;;;;;;;10.55;3.65;;;12.50;99.90;;;;;;4991328;28;20490;-69
2021/10/02 08:53:55;;;;;;;7.25;3.70;;;12.40;99.90;;;;;;4991507;28;20033;-69
2021/10/02 08:56:20;;;;;;;6.32;3.65;;;12.40;99.90;;;;;;4991267;28;20528;-69
2021/10/02 08:58:47;;;;;;;11.10;3.90;;;12.30;99.90;;;;;;4991173;28;20058;-69
2021/10/02 09:01:14;;;;;;;11.35;3.58;;;12.20;99.90;;;;;;4991211;28;20029;-69
2021/10/02 09:03:40;;;;;;;8.25;3.47;;;12.20;99.90;;;;;;4991071;28;20066;-69
2021/10/02 09:06:06;;;;;;;6.75;3.60;;;12.20;99.90;;;;;;4991003;28;20026;-69
2021/10/02 09:08:32;;;;;;;12.43;4.25;;;12.40;99.90;;;;;;4991142;28;20030;-69
2021/10/02 09:10:58;;;;;;;11.43;3.60;;;12.30;99.90;;;;;;4991167;28;20026;-68
2021/10/02 09:13:23;;;;;;;14.77;4.32;;;12.20;99.90;;;;;;4991304;28;20027;-68
2021/10/02 09:15:49;;;;;;;8.00;3.38;;;12.30;99.90;;;;;;4989890;28;20506;-68
2021/10/02 09:18:15;;;;;;;9.52;3.70;;;12.20;99.90;;;;;;4990770;28;20041;-69
2021/10/02 09:20:41;;;;;;;12.68;3.80;;;12.20;99.90;;;;;;4991141;28;20026;-68
2021/10/02 09:23:11;;;;;;;10.50;3.40;;;12.20;99.90;;;;;;4990962;28;20037;-68
2021/10/02 09:25:46;;;;;;;7.97;3.38;;;12.20;99.90;;;;;;4990839;28;20485;-68
2021/10/02 09:28:14;;;;;;;9.15;3.65;;;12.20;99.90;;;;;;4991217;28;20536;-68
2021/10/02 09:30:45;;;;;;;8.82;3.30;;;12.20;99.90;;;;;;4991033;28;20389;-68
2021/10/02 09:33:13;;;;;;;9.38;3.10;;;12.20;99.90;;;;;;4990762;28;20030;-68
2021/10/02 09:35:41;;;;;;;9.30;3.50;;;12.20;99.90;;;;;;4990647;28;20379;-69
2021/10/02 09:38:16;;;;;;;7.57;3.30;;;12.20;99.90;;;;;;4990563;28;20030;-68
2021/10/02 09:40:51;;;;;;;9.88;3.50;;;12.20;99.90;;;;;;4990629;28;20038;-68
2021/10/02 09:43:17;;;;;;;12.95;3.55;;;12.10;99.90;;;;;;4989266;28;20084;-68
2021/10/02 09:45:43;;;;;;;11.45;3.33;;;12.10;99.90;;;;;;4990763;28;20038;-67
2021/10/02 09:48:11;;;;;;;11.20;3.97;;;12.10;99.90;;;;;;4990427;28;20022;-67
2021/10/02 09:50:46;;;;;;;7.22;3.25;;;12.10;99.90;;;;;;4990348;28;20037;-68
2021/10/02 09:53:13;;;;;;;10.13;3.63;;;12.10;99.90;;;;;;4990396;28;20520;-68
2021/10/02 09:55:44;;;;;;;11.27;4.05;;;12.10;99.90;;;;;;4990279;28;20054;-67
2021/10/02 09:58:12;;;;;;;11.50;3.90;;;12.10;99.90;;;;;;4990520;28;20465;-67
2021/10/02 10:00:39;;;;;;;9.23;3.30;;;12.10;99.90;;;;;;4988987;28;20084;-67
2021/10/02 10:03:07;;;;;;;7.75;3.83;;;12.10;99.90;;;;;;4990198;28;20026;-67
2021/10/02 10:05:41;;;;;;;11.40;3.95;;;12.10;99.90;;;;;;4990298;28;20038;-67
2021/10/02 10:08:11;;;;;;;12.30;4.43;;;12.10;99.90;;;;;;4990174;28;20106;-67
2021/10/02 10:10:38;;;;;;;11.77;4.10;;;12.10;99.90;;;;;;4990121;28;20030;-67
2021/10/02 10:13:24;;;;;;;12.35;4.65;;;12.10;99.90;;;;;;4990032;28;20485;-67
2021/10/02 10:15:54;;;;;;;11.32;3.80;;;12.10;99.90;;;;;;4989948;28;20094;-68
2021/10/02 10:18:29;;;;;;;12.73;4.00;;;12.10;99.90;;;;;;4990378;28;20041;-67
2021/10/02 10:21:01;;;;;;;16.73;4.45;;;12.10;99.90;;;;;;4989927;28;20401;-67
2021/10/02 10:23:39;;;;;;;15.45;4.57;;;12.10;99.90;;;;;;4989992;28;20046;-67
2021/10/02 10:26:24;;;;;;;8.43;3.63;;;12.10;99.90;;;;;;4989801;28;20042;-68
2021/10/02 10:28:49;;;;;;;10.65;4.40;;;12.10;99.90;;;;;;4989554;28;20025;-68
2021/10/02 10:31:24;;;;;;;9.75;4.18;;;12.10;99.90;;;;;;4989791;28;20107;-67
2021/10/02 10:33:54;;;;;;;11.93;4.28;;;12.10;99.90;;;;;;4989863;28;20018;-68
2021/10/02 10:36:23;;;;;;;9.77;4.10;;;12.10;99.90;;;;;;4989591;28;20038;-68
2021/10/02 10:38:50;;;;;;;11.45;4.32;;;12.10;99.90;;;;;;4989805;28;20080;-68
2021/10/02 10:41:17;;;;;;;8.98;4.22;;;12.10;99.90;;;;;;4989628;28;20038;-67
2021/10/02 10:43:44;;;;;;;11.27;3.97;;;12.10;99.90;;;;;;4989766;28;20576;-67
2021/10/02 10:46:12;;;;;;;13.13;4.05;;;12.10;99.90;;;;;;4989515;28;20023;-67
2021/10/02 10:48:38;;;;;;;7.35;3.67;;;12.10;99.90;;;;;;4989682;28;20038;-68
2021/10/02 10:51:10;;;;;;;8.50;3.78;;;12.10;99.90;;;;;;4989597;28;20038;-68
2021/10/02 10:53:48;;;;;;;7.72;3.60;;;12.10;99.90;;;;;;4990062;28;20075;-68
2021/10/02 10:56:17;;;;;;;12.43;4.10;;;12.10;99.90;;;;;;4989600;28;20026;-67
2021/10/02 10:58:57;;;;;;;10.48;3.90;;;12.10;99.90;;;;;;4989973;28;20049;-67
2021/10/02 11:01:34;;;;;;;8.98;4.22;;;12.00;99.90;;;;;;4989702;28;20030;-67
2021/10/02 11:04:00;;;;;;;15.35;3.95;;;12.00;99.90;;;;;;4988162;28;20038;-67
2021/10/02 11:06:50;;;;;;;8.20;4.18;;;12.00;99.90;;;;;;4989587;28;20404;-67
2021/10/02 11:09:16;;;;;;;15.48;4.32;;;12.00;99.90;;;;;;4989489;28;20404;-67
2021/10/02 11:11:53;;;;;;;7.75;4.60;;;12.00;99.90;;;;;;4989698;28;20031;-67
2021/10/02 11:14:22;;;;;;;7.90;4.15;;;12.00;99.90;;;;;;4989450;28;20026;-67
2021/10/02 11:16:58;;;;;;;13.60;4.22;;;12.00;99.90;;;;;;4989345;28;20079;-67
2021/10/02 11:19:42;;;;;;;7.32;4.15;;;12.00;99.90;;;;;;4989452;28;20038;-68
2021/10/02 11:22:53;;;;;;;11.35;4.32;;;12.00;99.90;;;;;;4989196;28;20101;-68
2021/10/02 11:25:19;;;;;;;;;;;12.00;99.90;;;;;;4989666;28;20073;-66
2021/10/02 11:27:45;;;;;;;9.48;4.50;;;12.00;99.90;;;;;;4989130;28;19956;-68
2021/10/02 11:30:17;;;;;;;7.75;3.28;;;12.00;99.90;;;;;;4989272;28;20033;-68
2021/10/02 11:32:43;;;;;;;8.35;4.05;;;12.70;99.90;;;;;;4989243;28;20052;-68
2021/10/02 11:35:22;;;;;;;10.23;4.20;;;12.90;99.90;;;;;;4988863;28;20046;-68
2021/10/02 11:38:07;;;;;;;13.60;4.40;;;12.60;99.90;;;;;;4989112;28;20026;-68
2021/10/02 11:40:33;;;;;;;9.05;4.07;;;12.40;99.90;;;;;;4991319;28;20828;-67
2021/10/02 11:43:21;;;;;;;12.25;4.50;;;12.30;99.90;;;;;;4992470;28;20110;-67
2021/10/02 11:45:47;;;;;;;11.40;4.63;;;12.20;99.90;;;;;;4992434;28;20425;-68
2021/10/02 11:48:35;;;;;;;11.27;4.72;;;12.10;99.90;;;;;;4992161;28;20022;-68
2021/10/02 11:51:15;;;;;;;14.23;4.93;;;12.10;99.90;;;;;;4992161;28;20034;-68
2021/10/02 11:54:13;;;;;;;7.88;4.30;;;12.20;99.90;;;;;;4992278;28;20378;-68
2021/10/02 11:56:41;;;;;;;13.50;4.97;;;12.20;99.90;;;;;;4992175;28;20030;-67
2021/10/02 11:59:07;;;;;;;20.17;5.65;;;12.20;99.90;;;;;;4992021;28;20084;-66
2021/10/02 12:01:41;;;;;;;11.40;4.95;;;12.10;99.90;;;;;;4992118;28;20022;-66
2021/10/02 12:04:15;;;;;;;10.90;4.28;;;12.40;99.90;;;;;;4992031;28;20027;-68
2021/10/02 12:06:44;;;;;;;12.15;4.53;;;12.30;99.90;;;;;;4989965;28;20472;-68
2021/10/02 12:09:15;;;;;;;10.82;4.72;;;12.20;99.90;;;;;;4986516;28;20072;-66
2021/10/02 12:11:50;;;;;;;13.13;5.07;;;12.10;99.90;;;;;;4992099;28;20034;-66
2021/10/02 12:14:17;;;;;;;10.02;4.93;;;12.10;99.90;;;;;;4981278;28;20153;-66
2021/10/02 12:16:53;;;;;;;9.73;4.35;;;12.10;99.90;;;;;;4972830;28;20042;-66
2021/10/02 12:19:22;;;;;;;10.45;4.60;;;12.10;99.90;;;;;;4972338;28;20059;-66
2021/10/02 12:21:57;;;;;;;12.23;5.03;;;12.10;99.90;;;;;;4972506;28;20165;-65
2021/10/02 12:24:29;;;;;;;10.90;5.05;;;12.10;99.90;;;;;;4972692;28;20042;-66
2021/10/02 12:27:16;;;;;;;15.07;5.38;;;12.10;99.90;;;;;;4972558;28;20027;-67
2021/10/02 12:29:52;;;;;;;11.50;4.80;;;12.10;99.90;;;;;;4972671;28;20027;-67
2021/10/02 12:32:22;;;;;;;11.82;4.70;;;12.10;99.90;;;;;;4971885;28;20029;-66
2021/10/02 12:34:49;;;;;;;14.50;4.82;;;12.10;99.90;;;;;;4972014;28;20505;-66
2021/10/02 12:37:39;;;;;;;13.75;5.32;;;12.10;99.90;;;;;;4972202;28;20039;-66
2021/10/02 12:40:08;;;;;;;10.63;4.88;;;12.10;99.90;;;;;;4971843;28;20422;-67
2021/10/02 12:42:39;;;;;;;11.40;5.07;;;12.10;99.90;;;;;;4971883;28;20038;-66
2021/10/02 12:45:09;;;;;;;15.20;4.80;;;12.10;99.90;;;;;;4972540;28;20206;-66
2021/10/02 12:47:35;;;;;;;11.05;5.15;;;12.10;99.90;;;;;;4980410;28;20493;-67
2021/10/02 12:50:07;;;;;;;10.25;4.93;;;12.10;99.90;;;;;;4981934;28;20045;-68
2021/10/02 12:52:32;;;;;;;14.75;5.00;;;12.00;99.90;;;;;;4981598;28;20379;-68
2021/10/02 12:54:59;;;;;;;13.23;5.50;;;12.00;99.90;;;;;;4980382;28;20010;-68
2021/10/02 12:57:32;;;;;;;11.93;5.70;;;12.00;99.90;;;;;;4971712;28;20035;-68
2021/10/02 13:00:11;;;;;;;10.30;5.00;;;12.10;99.90;;;;;;4971915;28;20092;-68
2021/10/02 13:02:42;;;;;;;11.90;7.30;;;12.10;99.90;;;;;;4971700;28;20501;-68
2021/10/02 13:05:09;;;;;;;12.23;5.25;;;12.10;99.90;;;;;;4971846;28;20035;-67
2021/10/02 13:07:40;;;;;;;8.05;4.57;;;12.10;99.90;;;;;;4971720;28;20506;-67
2021/10/02 13:10:11;;;;;;;13.43;5.70;;;12.10;99.90;;;;;;4971523;28;20037;-67
2021/10/02 13:12:41;;;;;;;12.95;5.75;;;12.10;99.90;;;;;;4971761;28;20092;-67
2021/10/02 13:15:28;;;;;;;15.20;5.85;;;12.10;99.90;;;;;;4971757;28;20026;-67
2021/10/02 13:18:00;;;;;;;9.93;5.60;;;12.10;99.90;;;;;;4971432;28;20035;-67
2021/10/02 13:20:27;;;;;;;14.80;5.20;;;12.10;99.90;;;;;;4971558;28;20033;-67
2021/10/02 13:22:53;;;;;;;8.63;4.68;;;12.10;99.90;;;;;;4971652;28;20027;-66
2021/10/02 13:25:24;;;;;;;8.45;4.85;;;12.10;99.90;;;;;;4971468;28;20564;-66
2021/10/02 13:27:56;;;;;;;13.02;4.80;;;12.00;99.90;;;;;;4971341;28;20539;-66
2021/10/02 13:30:29;;;;;;;11.35;5.07;;;12.00;99.90;;;;;;4971483;28;20076;-67
2021/10/02 13:33:03;;;;;;;15.23;4.90;;;12.00;99.90;;;;;;4971337;28;20498;-66
2021/10/02 13:35:37;;;;;;;11.70;4.50;;;12.00;99.90;;;;;;4971126;28;20046;-67
2021/10/02 13:38:09;;;;;;;10.63;5.28;;;12.00;99.90;;;;;;4971015;28;20023;-67
2021/10/02 13:40:38;;;;;;;11.80;4.93;;;12.00;99.90;;;;;;4971254;28;20062;-67
2021/10/02 13:43:09;;;;;;;11.20;5.13;;;11.90;99.90;;;;;;4971059;28;20034;-67
2021/10/02 13:45:39;;;;;;;13.93;4.88;;;11.90;99.90;;;;;;4971136;28;20620;-67
2021/10/02 13:48:13;;;;;;;7.85;4.47;;;11.90;99.90;;;;;;4971115;28;20034;-67
2021/10/02 13:50:46;;;;;;;10.75;4.60;;;11.90;99.90;;;;;;4971489;28;20035;-67
2021/10/02 13:53:13;;;;;;;13.38;4.78;;;12.00;99.90;;;;;;4970879;28;20368;-67
2021/10/02 13:55:40;;;;;;;10.80;4.47;;;11.90;99.90;;;;;;4971031;28;20578;-67
2021/10/02 13:58:06;;;;;;;10.73;4.85;;;11.90;99.90;;;;;;4970678;28;20111;-67
2021/10/02 14:00:33;;;;;;;9.35;4.63;;;11.90;99.90;;;;;;4970914;28;20041;-67
2021/10/02 14:02:59;;;;;;;10.85;4.65;;;11.90;99.90;;;;;;4970466;28;20030;-67
2021/10/02 14:05:25;;;;;;;9.13;4.57;;;11.90;99.90;;;;;;4970838;28;20652;-67
2021/10/02 14:07:52;;;;;;;11.07;4.65;;;11.90;99.90;;;;;;4970887;28;20019;-69
2021/10/02 14:10:19;;;;;;;9.57;4.65;;;11.90;99.90;;;;;;4970956;28;20026;-68
2021/10/02 14:12:45;;;;;;;10.07;4.20;;;11.90;99.90;;;;;;4970909;28;20027;-69
2021/10/02 14:15:11;;;;;;;9.98;4.78;;;11.90;99.90;;;;;;4970534;28;20022;-68
2021/10/02 14:17:38;;;;;;;9.35;4.70;;;11.90;99.90;;;;;;4970589;28;20023;-69